createdAt,value
2022-09-20T00:01:28.181Z,1.10
2022-09-20T00:03:58.348Z,1.35
2022-09-20T00:06:27.354Z,1.25
2022-09-20T00:08:54.362Z,0.90
2022-09-20T00:11:23.277Z,0.90
2022-09-20T00:13:52.974Z,1.00
2022-09-20T00:16:25.382Z,1.30
2022-09-20T00:18:54.131Z,1.35
2022-09-20T00:21:24.486Z,1.10
2022-09-20T00:23:52.505Z,1.05
2022-09-20T00:26:20.028Z,1.25
2022-09-20T00:28:47.183Z,1.10
2022-09-20T00:31:14.282Z,1.20
2022-09-20T00:33:59.399Z,1.10
2022-09-20T00:36:27.394Z,1.45
2022-09-20T00:38:58.017Z,1.20
2022-09-20T00:41:24.633Z,1.50
2022-09-20T00:43:51.687Z,1.17
2022-09-20T00:46:40.735Z,1.25
2022-09-20T00:49:20.629Z,1.60
2022-09-20T00:51:55.488Z,1.20
2022-09-20T00:54:25.190Z,1.33
2022-09-20T00:56:52.425Z,1.38
2022-09-20T00:59:23.230Z,1.40
2022-09-20T01:02:00.632Z,1.55
2022-09-20T01:04:28.555Z,1.58
2022-09-20T01:07:00.852Z,1.40
2022-09-20T01:09:27.304Z,1.65
2022-09-20T01:11:56.442Z,1.60
2022-09-20T01:14:24.705Z,1.50
2022-09-20T01:16:55.063Z,1.40
2022-09-20T01:19:32.996Z,1.25
2022-09-20T01:22:04.299Z,1.27
2022-09-20T01:24:48.552Z,1.55
2022-09-20T01:27:21.031Z,1.55
2022-09-20T01:29:56.441Z,1.35
2022-09-20T01:32:30.905Z,1.33
2022-09-20T01:35:00.333Z,1.38
2022-09-20T01:37:32.144Z,1.02
2022-09-20T01:40:21.910Z,1.20
2022-09-20T01:43:02.817Z,1.52
2022-09-20T01:45:31.913Z,1.30
2022-09-20T01:48:13.418Z,1.23
2022-09-20T01:50:58.589Z,1.17
2022-09-20T01:54:15.783Z,1.15
2022-09-20T01:57:13.033Z,1.30
2022-09-20T02:00:06.039Z,1.27
2022-09-20T02:02:57.553Z,1.20
2022-09-20T02:05:46.943Z,1.40
2022-09-20T02:08:49.548Z,1.20
2022-09-20T02:11:18.840Z,1.45
2022-09-20T02:14:04.367Z,1.23
2022-09-20T02:16:54.143Z,1.30
2022-09-20T02:20:01.883Z,1.50
2022-09-20T02:23:02.458Z,1.38
2022-09-20T02:25:43.970Z,1.08
2022-09-20T02:28:13.321Z,1.40
2022-09-20T02:31:02.160Z,1.48
2022-09-20T02:33:40.792Z,1.25
2022-09-20T02:36:27.215Z,1.52
2022-09-20T02:38:59.634Z,1.40
2022-09-20T02:41:52.832Z,1.35
2022-09-20T02:44:37.946Z,1.50
2022-09-20T02:47:07.464Z,1.33
2022-09-20T02:49:58.845Z,1.30
2022-09-20T02:52:32.627Z,1.23
2022-09-20T02:54:58.996Z,1.50
2022-09-20T02:58:05.724Z,1.40
2022-09-20T03:01:04.014Z,1.10
2022-09-20T03:03:52.128Z,1.15
2022-09-20T03:06:34.070Z,1.42
2022-09-20T03:09:18.417Z,1.70
2022-09-20T03:12:11.386Z,1.48
2022-09-20T03:14:45.517Z,1.50
2022-09-20T03:17:43.678Z,1.45
2022-09-20T03:20:47.556Z,1.30
2022-09-20T03:23:27.807Z,1.63
2022-09-20T03:26:15.555Z,1.70
2022-09-20T03:28:57.337Z,1.52
2022-09-20T03:31:44.608Z,1.55
2022-09-20T03:34:13.848Z,1.27
2022-09-20T03:37:17.872Z,1.38
2022-09-20T03:40:09.694Z,1.33
2022-09-20T03:42:44.637Z,1.50
2022-09-20T03:45:20.125Z,1.35
2022-09-20T03:48:01.742Z,1.38
2022-09-20T03:50:47.000Z,1.40
2022-09-20T03:53:43.986Z,1.67
2022-09-20T03:56:29.940Z,1.70
2022-09-20T03:59:31.780Z,1.23
2022-09-20T04:02:17.084Z,1.40
2022-09-20T04:05:00.962Z,1.27
2022-09-20T04:07:58.167Z,1.67
2022-09-20T04:10:44.519Z,1.40
2022-09-20T04:13:32.847Z,1.33
2022-09-20T04:16:10.240Z,1.02
2022-09-20T04:18:56.615Z,1.70
2022-09-20T04:21:51.392Z,1.40
2022-09-20T04:24:29.885Z,1.52
2022-09-20T04:27:02.863Z,1.50
2022-09-20T04:29:41.704Z,1.80
2022-09-20T04:32:30.130Z,1.63
2022-09-20T04:35:41.931Z,1.80
2022-09-20T04:38:12.686Z,1.92
2022-09-20T04:41:28.313Z,1.80
2022-09-20T04:44:13.064Z,1.10
2022-09-20T04:47:18.413Z,1.77
2022-09-20T04:50:18.088Z,1.40
2022-09-20T04:53:03.224Z,1.50
2022-09-20T04:55:48.487Z,1.40
2022-09-20T04:58:50.597Z,1.55
2022-09-20T05:02:03.409Z,1.45
2022-09-20T05:04:40.631Z,1.52
2022-09-20T05:07:31.752Z,1.67
2022-09-20T05:10:10.387Z,2.03
2022-09-20T05:12:46.564Z,1.58
2022-09-20T05:15:37.029Z,1.33
2022-09-20T05:18:46.621Z,1.73
2022-09-20T05:21:38.002Z,1.33
2022-09-20T05:24:20.222Z,2.03
2022-09-20T05:26:55.598Z,1.38
2022-09-20T05:29:35.113Z,1.42
2022-09-20T05:32:19.616Z,1.52
2022-09-20T05:35:19.188Z,1.63
2022-09-20T05:38:05.603Z,1.50
2022-09-20T05:41:07.552Z,1.75
2022-09-20T05:43:39.722Z,2.25
2022-09-20T05:47:00.577Z,1.77
2022-09-20T05:49:39.563Z,2.03
2022-09-20T05:52:19.342Z,1.70
2022-09-20T05:55:27.233Z,1.60
2022-09-20T05:58:08.229Z,1.73
2022-09-20T06:00:43.941Z,1.73
2022-09-20T06:03:28.504Z,1.30
2022-09-20T06:06:18.996Z,1.90
2022-09-20T06:09:15.640Z,2.13
2022-09-20T06:12:01.688Z,1.80
2022-09-20T06:14:46.521Z,1.73
2022-09-20T06:17:19.136Z,2.00
2022-09-20T06:20:10.391Z,1.90
2022-09-20T06:22:42.829Z,1.92
2022-09-20T06:25:09.205Z,2.00
2022-09-20T06:27:39.647Z,1.98
2022-09-20T06:30:14.773Z,1.90
2022-09-20T06:33:18.255Z,1.70
2022-09-20T06:36:24.957Z,1.70
2022-09-20T06:39:44.042Z,1.60
2022-09-20T06:42:10.614Z,1.25
2022-09-20T06:44:41.269Z,1.58
2022-09-20T06:47:10.662Z,1.33
2022-09-20T06:49:37.265Z,1.50
2022-09-20T06:52:08.285Z,1.55
2022-09-20T06:54:34.745Z,1.58
2022-09-20T06:57:04.609Z,1.55
2022-09-20T06:59:31.996Z,1.60
2022-09-20T07:01:58.721Z,1.58
2022-09-20T07:04:26.651Z,1.50
2022-09-20T07:07:00.089Z,1.70
2022-09-20T07:09:26.530Z,1.77
2022-09-20T07:11:52.920Z,1.90
2022-09-20T07:14:19.368Z,1.80
2022-09-20T07:16:45.846Z,1.75
2022-09-20T07:19:12.349Z,2.17
2022-09-20T07:21:38.767Z,1.75
2022-09-20T07:24:05.344Z,1.95
2022-09-20T07:26:31.864Z,1.90
2022-09-20T07:28:59.809Z,1.60
2022-09-20T07:31:27.963Z,1.77
2022-09-20T07:33:54.569Z,1.77
2022-09-20T07:36:21.445Z,1.77
2022-09-20T07:38:53.061Z,1.60
2022-09-20T07:41:20.588Z,1.80
2022-09-20T07:43:47.108Z,2.17
2022-09-20T07:46:13.777Z,1.77
2022-09-20T07:48:41.271Z,1.77
2022-09-20T07:51:11.334Z,1.92
2022-09-20T07:53:38.716Z,1.85
2022-09-20T07:56:12.848Z,7.00
2022-09-20T07:58:39.893Z,5.65
2022-09-20T08:01:09.726Z,2.33
2022-09-20T08:03:36.919Z,1.80
2022-09-20T08:06:09.321Z,2.25
2022-09-20T08:08:37.452Z,1.92
2022-09-20T08:11:06.448Z,1.83
2022-09-20T08:14:09.611Z,1.80
2022-09-20T08:16:54.944Z,2.10
2022-09-20T08:19:22.916Z,1.98
2022-09-20T08:21:51.250Z,2.15
2022-09-20T08:24:17.777Z,2.10
2022-09-20T08:26:44.919Z,2.20
2022-09-20T08:29:12.136Z,2.60
2022-09-20T08:31:42.491Z,2.10
2022-09-20T08:34:11.697Z,2.35
2022-09-20T08:36:45.411Z,2.38
2022-09-20T08:42:12.860Z,3.20
2022-09-20T08:45:05.320Z,2.45
2022-09-20T08:47:35.876Z,2.55
2022-09-20T08:50:09.989Z,3.08
2022-09-20T08:52:40.686Z,2.90
2022-09-20T08:55:16.987Z,2.67
2022-09-20T08:57:44.785Z,3.20
2022-09-20T09:00:18.426Z,5.10
2022-09-20T09:02:45.886Z,3.10
2022-09-20T09:05:33.633Z,2.65
2022-09-20T09:08:04.719Z,3.22
2022-09-20T09:10:42.635Z,3.42
2022-09-20T09:13:18.324Z,3.28
2022-09-20T09:15:49.066Z,2.90
2022-09-20T09:18:15.441Z,2.78
2022-09-20T09:20:46.765Z,3.63
2022-09-20T09:23:25.670Z,3.45
2022-09-20T09:25:54.040Z,3.30
2022-09-20T09:28:26.750Z,2.85
2022-09-20T09:30:54.171Z,3.13
2022-09-20T09:33:31.704Z,3.35
2022-09-20T09:36:04.082Z,3.10
2022-09-20T09:38:49.305Z,3.58
2022-09-20T09:41:20.348Z,3.28
2022-09-20T09:43:59.383Z,2.53
2022-09-20T09:46:31.016Z,3.55
2022-09-20T09:49:24.803Z,3.35
2022-09-20T09:51:57.208Z,2.83
2022-09-20T09:54:25.575Z,3.00
2022-09-20T09:57:01.836Z,3.00
2022-09-20T09:59:49.217Z,2.90
2022-09-20T10:02:36.804Z,3.08
2022-09-20T10:05:24.740Z,3.33
2022-09-20T10:08:10.732Z,3.15
2022-09-20T10:11:00.897Z,2.55
2022-09-20T10:13:47.547Z,2.92
2022-09-20T10:16:32.975Z,3.08
2022-09-20T10:19:22.580Z,3.15
2022-09-20T10:22:08.540Z,3.35
2022-09-20T10:25:00.589Z,2.47
2022-09-20T10:27:36.127Z,2.40
2022-09-20T10:30:22.107Z,2.33
2022-09-20T10:33:06.668Z,1.70
2022-09-20T10:36:12.244Z,2.10
2022-09-20T10:38:50.093Z,1.80
2022-09-20T10:41:58.397Z,3.45
2022-09-20T10:44:33.863Z,4.03
2022-09-20T10:47:20.420Z,2.88
2022-09-20T10:50:05.388Z,3.35
2022-09-20T10:52:50.481Z,2.92
2022-09-20T10:55:47.257Z,3.10
2022-09-20T10:58:52.427Z,3.10
2022-09-20T11:01:31.656Z,2.80
2022-09-20T11:04:17.137Z,2.72
2022-09-20T11:06:58.767Z,2.70
2022-09-20T11:09:31.202Z,2.85
2022-09-20T11:12:27.075Z,2.80
2022-09-20T11:14:58.442Z,2.80
2022-09-20T11:17:35.976Z,2.17
2022-09-20T11:20:17.644Z,2.22
2022-09-20T11:22:48.914Z,2.20
2022-09-20T11:25:22.420Z,2.47
2022-09-20T11:28:04.627Z,2.22
2022-09-20T11:30:34.884Z,2.30
2022-09-20T11:33:28.781Z,2.08
2022-09-20T11:35:59.252Z,2.40
2022-09-20T11:38:53.437Z,2.42
2022-09-20T11:43:55.541Z,2.42
2022-09-20T11:46:26.777Z,2.42
2022-09-20T11:49:04.499Z,2.78
2022-09-20T11:51:54.067Z,2.90
2022-09-20T11:54:32.608Z,2.60
2022-09-20T11:57:00.141Z,2.40
2022-09-20T11:59:37.600Z,2.72
2022-09-20T12:02:17.816Z,2.40
2022-09-20T12:04:49.484Z,2.50
2022-09-20T12:07:18.930Z,2.75
2022-09-20T12:09:53.790Z,2.05
2022-09-20T12:12:36.065Z,2.15
2022-09-20T12:15:06.913Z,2.33
2022-09-20T12:17:45.591Z,1.85
2022-09-20T12:20:42.346Z,1.98
2022-09-20T12:23:42.414Z,1.80
2022-09-20T12:26:13.288Z,1.50
2022-09-20T12:28:42.412Z,1.30
2022-09-20T12:31:32.113Z,1.42
2022-09-20T12:34:09.993Z,1.30
2022-09-20T12:36:44.628Z,1.20
2022-09-20T12:39:11.068Z,1.48
2022-09-20T12:41:50.325Z,1.50
2022-09-20T12:44:24.639Z,1.60
2022-09-20T12:46:56.564Z,1.40
2022-09-20T12:50:04.657Z,1.42
2022-09-20T12:52:56.115Z,1.60
2022-09-20T12:55:29.844Z,1.85
2022-09-20T13:00:45.214Z,1.67
2022-09-20T13:03:23.865Z,1.40
2022-09-20T13:06:12.386Z,1.33
2022-09-20T13:09:09.042Z,1.27
2022-09-20T13:11:47.652Z,1.40
2022-09-20T13:14:22.593Z,1.40
2022-09-20T13:17:04.257Z,1.30
2022-09-20T13:19:38.066Z,1.35
2022-09-20T13:24:35.594Z,1.55
2022-09-20T13:27:06.741Z,1.15
2022-09-20T13:29:39.339Z,1.30
2022-09-20T13:32:27.969Z,1.88
2022-09-20T13:35:07.890Z,1.60
2022-09-20T13:37:35.674Z,1.40
2022-09-20T13:40:02.922Z,1.63
2022-09-20T13:42:30.033Z,1.55
2022-09-20T13:44:58.752Z,1.25
2022-09-20T13:47:31.243Z,0.95
2022-09-20T13:50:44.918Z,1.20
2022-09-20T13:53:39.504Z,1.35
2022-09-20T13:56:11.612Z,1.38
2022-09-20T13:58:38.284Z,1.40
2022-09-20T14:01:09.665Z,1.50
2022-09-20T14:03:36.480Z,1.45
2022-09-20T14:06:12.328Z,1.30
2022-09-20T14:08:51.064Z,0.90
2022-09-20T14:11:22.479Z,1.10
2022-09-20T14:13:51.512Z,1.45
2022-09-20T14:16:20.405Z,1.30
2022-09-20T14:18:48.586Z,1.33
2022-09-20T14:21:23.123Z,0.93
2022-09-20T14:23:50.963Z,1.15
2022-09-20T14:26:17.343Z,1.30
2022-09-20T14:28:44.954Z,1.23
2022-09-20T14:31:15.860Z,1.38
2022-09-20T14:33:54.275Z,1.15
2022-09-20T14:36:23.971Z,2.28
2022-09-20T14:38:54.097Z,1.13
2022-09-20T14:41:47.020Z,1.10
2022-09-20T14:44:30.796Z,1.50
2022-09-20T14:46:57.707Z,1.23
2022-09-20T14:49:24.051Z,1.50
2022-09-20T14:51:51.601Z,1.30
2022-09-20T14:54:26.938Z,1.40
2022-09-20T14:56:54.765Z,1.27
2022-09-20T14:59:26.820Z,1.50
2022-09-20T15:02:10.209Z,1.40
2022-09-20T15:04:37.940Z,1.20
2022-09-20T15:07:12.854Z,1.27
2022-09-20T15:09:39.588Z,1.50
2022-09-20T15:12:14.291Z,1.15
2022-09-20T15:14:41.448Z,1.58
2022-09-20T15:17:12.787Z,1.15
2022-09-20T15:19:39.258Z,1.50
2022-09-20T15:22:09.920Z,1.38
2022-09-20T15:24:36.516Z,1.42
2022-09-20T15:27:02.964Z,1.45
2022-09-20T15:29:29.429Z,1.27
2022-09-20T15:31:55.898Z,1.15
2022-09-20T15:34:22.522Z,1.20
2022-09-20T15:36:50.644Z,1.10
2022-09-20T15:39:17.346Z,1.33
2022-09-20T15:41:46.880Z,1.30
2022-09-20T15:44:16.736Z,1.20
2022-09-20T15:46:43.152Z,1.40
2022-09-20T15:49:12.225Z,1.33
2022-09-20T15:51:39.102Z,1.08
2022-09-20T15:54:07.537Z,1.10
2022-09-20T15:56:36.688Z,1.17
2022-09-20T15:59:11.107Z,1.20
2022-09-20T16:01:40.085Z,1.23
2022-09-20T16:04:14.131Z,1.48
2022-09-20T16:06:42.326Z,1.05
2022-09-20T16:09:09.449Z,1.00
2022-09-20T16:11:36.736Z,1.25
2022-09-20T16:14:03.419Z,1.20
2022-09-20T16:16:35.029Z,1.67
2022-09-20T16:19:17.498Z,1.30
2022-09-20T16:21:54.993Z,1.10
2022-09-20T16:24:26.149Z,1.08
2022-09-20T16:26:53.179Z,1.10
2022-09-20T16:29:22.125Z,1.20
2022-09-20T16:31:50.214Z,0.90
2022-09-20T16:34:39.102Z,1.20
2022-09-20T16:37:17.109Z,1.20
2022-09-20T16:39:44.750Z,1.20
2022-09-20T16:42:13.307Z,1.15
2022-09-20T16:44:44.376Z,1.42
2022-09-20T16:47:13.099Z,1.30
2022-09-20T16:49:39.677Z,1.10
2022-09-20T16:52:08.953Z,1.30
2022-09-20T16:54:35.756Z,1.05
2022-09-20T16:57:02.335Z,1.40
2022-09-20T16:59:28.964Z,1.73
2022-09-20T17:01:59.120Z,1.90
2022-09-20T17:04:25.782Z,2.05
2022-09-20T17:06:52.581Z,2.25
2022-09-20T17:09:19.242Z,2.30
2022-09-20T17:11:49.570Z,2.40
2022-09-20T17:14:18.630Z,2.13
2022-09-20T17:16:49.298Z,2.20
2022-09-20T17:19:18.601Z,2.55
2022-09-20T17:21:50.492Z,2.10
2022-09-20T17:24:22.028Z,2.00
2022-09-20T17:26:50.413Z,1.98
2022-09-20T17:29:18.506Z,1.75
2022-09-20T17:31:53.980Z,1.50
2022-09-20T17:34:21.976Z,1.25
2022-09-20T17:36:50.461Z,1.20
2022-09-20T17:39:17.922Z,1.52
2022-09-20T17:41:47.185Z,1.48
2022-09-20T17:44:13.944Z,1.05
2022-09-20T17:46:45.662Z,1.17
2022-09-20T17:49:14.528Z,1.30
2022-09-20T17:51:46.656Z,1.83
2022-09-20T17:54:14.244Z,2.40
2022-09-20T17:56:46.361Z,2.30
2022-09-20T17:59:16.252Z,2.17
2022-09-20T18:01:44.222Z,2.72
2022-09-20T18:04:11.400Z,2.75
2022-09-20T18:06:43.511Z,2.20
2022-09-20T18:09:18.816Z,1.55
2022-09-20T18:11:50.665Z,1.58
2022-09-20T18:14:20.352Z,1.50
2022-09-20T18:16:47.430Z,1.83
2022-09-20T18:19:16.128Z,1.20
2022-09-20T18:21:43.150Z,1.23
2022-09-20T18:24:11.210Z,1.55
2022-09-20T18:26:39.909Z,1.70
2022-09-20T18:29:12.466Z,1.45
2022-09-20T18:31:57.998Z,1.35
2022-09-20T18:34:26.833Z,1.10
2022-09-20T18:36:56.131Z,1.30
2022-09-20T18:39:27.863Z,1.65
2022-09-20T18:41:55.017Z,1.20
2022-09-20T18:44:22.772Z,1.23
2022-09-20T18:46:51.086Z,1.30
2022-09-20T18:49:17.755Z,1.08
2022-09-20T18:51:44.838Z,1.63
2022-09-20T18:54:11.872Z,1.35
2022-09-20T18:56:40.810Z,2.10
2022-09-20T18:59:16.908Z,2.55
2022-09-20T19:02:15.746Z,2.40
2022-09-20T19:05:08.524Z,2.25
2022-09-20T19:08:13.712Z,1.60
2022-09-20T19:10:43.029Z,2.33
2022-09-20T19:13:23.208Z,2.58
2022-09-20T19:16:00.405Z,3.10
2022-09-20T19:18:49.119Z,2.42
2022-09-20T19:21:31.158Z,2.22
2022-09-20T19:24:05.469Z,1.92
2022-09-20T19:26:38.612Z,3.10
2022-09-20T19:29:18.830Z,2.63
2022-09-20T19:31:47.794Z,2.65
2022-09-20T19:34:19.953Z,3.00
2022-09-20T19:37:24.250Z,2.20
2022-09-20T19:40:21.894Z,2.65
2022-09-20T19:43:00.390Z,3.67
2022-09-20T19:45:48.692Z,2.80
2022-09-20T19:48:40.849Z,2.55
2022-09-20T19:51:12.126Z,2.88
2022-09-20T19:53:39.315Z,2.85
2022-09-20T19:56:26.600Z,2.90
2022-09-20T19:58:55.058Z,2.92
2022-09-20T20:01:23.773Z,2.58
2022-09-20T20:03:51.696Z,2.40
2022-09-20T20:06:36.768Z,3.08
2022-09-20T20:09:18.604Z,2.40
2022-09-20T20:11:51.274Z,2.60
2022-09-20T20:14:20.947Z,2.53
2022-09-20T20:17:41.201Z,2.67
2022-09-20T20:20:46.276Z,2.72
2022-09-20T20:23:32.446Z,2.67
2022-09-20T20:26:21.674Z,2.88
2022-09-20T20:28:48.393Z,2.38
2022-09-20T20:31:15.314Z,2.50
2022-09-20T20:33:43.412Z,2.95
2022-09-20T20:36:11.968Z,2.58
2022-09-20T20:38:40.415Z,2.83
2022-09-20T20:41:12.249Z,2.75
2022-09-20T20:43:40.902Z,2.70
2022-09-20T20:46:10.952Z,3.63
2022-09-20T20:48:37.698Z,3.40
2022-09-20T20:51:12.542Z,2.72
2022-09-20T20:53:47.100Z,3.47
2022-09-20T20:56:28.618Z,3.70
2022-09-20T20:58:57.827Z,2.60
2022-09-20T21:01:27.782Z,3.10
2022-09-20T21:03:56.027Z,3.25
2022-09-20T21:06:25.192Z,2.88
2022-09-20T21:08:52.493Z,3.10
2022-09-20T21:11:24.292Z,2.88
2022-09-20T21:13:55.224Z,2.90
2022-09-20T21:16:24.287Z,3.70
2022-09-20T21:18:51.300Z,3.00
2022-09-20T21:21:24.533Z,3.22
2022-09-20T21:23:53.556Z,3.40
2022-09-20T21:26:21.601Z,3.28
2022-09-20T21:28:59.589Z,3.50
2022-09-20T21:31:29.310Z,3.50
2022-09-20T21:33:57.016Z,3.40
2022-09-20T21:36:29.101Z,3.63
2022-09-20T21:38:56.377Z,3.42
2022-09-20T21:41:29.389Z,2.80
2022-09-20T21:43:57.827Z,3.17
2022-09-20T21:46:30.301Z,3.60
2022-09-20T21:48:59.429Z,3.30
2022-09-20T21:51:29.834Z,3.15
2022-09-20T21:53:58.169Z,3.70
2022-09-20T21:56:27.514Z,3.28
2022-09-20T21:58:54.754Z,3.60
2022-09-20T22:01:24.125Z,3.42
2022-09-20T22:04:01.130Z,3.95
2022-09-20T22:06:36.446Z,3.53
2022-09-20T22:09:11.202Z,3.33
2022-09-20T22:11:40.910Z,3.40
2022-09-20T22:14:08.736Z,3.25
2022-09-20T22:16:38.090Z,3.40
2022-09-20T22:19:06.292Z,3.40
2022-09-20T22:21:35.799Z,5.60
2022-09-20T22:24:05.145Z,3.90
2022-09-20T22:26:34.509Z,3.35
2022-09-20T22:29:01.442Z,3.72
2022-09-20T22:31:30.503Z,3.30
2022-09-20T22:34:00.025Z,3.38
2022-09-20T22:36:33.074Z,3.40
2022-09-20T22:38:59.873Z,3.22
2022-09-20T22:41:27.712Z,3.58
2022-09-20T22:43:54.475Z,4.18
2022-09-20T22:46:28.431Z,4.72
2022-09-20T22:48:55.410Z,4.05
2022-09-20T22:51:30.963Z,3.80
2022-09-20T22:53:57.507Z,3.35
2022-09-20T22:56:29.437Z,3.53
2022-09-20T22:59:00.251Z,3.20
2022-09-20T23:01:47.202Z,3.33
2022-09-20T23:04:19.115Z,3.70
2022-09-20T23:06:48.029Z,3.35
2022-09-20T23:09:17.791Z,4.25
2022-09-20T23:11:44.838Z,4.35
2022-09-20T23:14:14.419Z,6.47
2022-09-20T23:16:41.168Z,4.53
2022-09-20T23:19:09.156Z,4.45
2022-09-20T23:21:38.355Z,3.88
2022-09-20T23:24:07.904Z,3.30
2022-09-20T23:26:36.897Z,3.10
2022-09-20T23:29:06.348Z,3.60
2022-09-20T23:31:34.668Z,3.35
2022-09-20T23:34:03.565Z,2.90
2022-09-20T23:36:32.336Z,3.80
2022-09-20T23:38:59.063Z,2.90
2022-09-20T23:41:27.323Z,3.00
2022-09-20T23:43:54.841Z,2.85
2022-09-20T23:46:22.905Z,2.72
2022-09-20T23:48:52.559Z,3.00
2022-09-20T23:51:25.461Z,2.97
2022-09-20T23:53:53.040Z,2.70
2022-09-20T23:56:21.640Z,2.60
2022-09-20T23:58:48.745Z,3.00
